createdAt,value
2023-01-10T00:00:25.196Z,81.89
2023-01-10T00:05:31.105Z,82.00
2023-01-10T00:10:36.875Z,82.03
2023-01-10T00:15:42.588Z,81.97
2023-01-10T00:20:52.259Z,82.14
2023-01-10T00:25:57.713Z,82.29
2023-01-10T00:31:05.207Z,82.29
2023-01-10T00:36:11.821Z,82.33
2023-01-10T00:41:35.807Z,82.66
2023-01-10T00:46:41.272Z,82.47
2023-01-10T00:51:47.366Z,82.47
2023-01-10T00:56:52.885Z,82.49
2023-01-10T01:01:58.427Z,82.70
2023-01-10T01:07:04.429Z,82.48
2023-01-10T01:12:09.985Z,82.68
2023-01-10T01:17:15.883Z,82.67
2023-01-10T01:22:21.497Z,82.65
2023-01-10T01:27:26.875Z,82.66
2023-01-10T01:32:32.250Z,82.66
2023-01-10T01:37:37.783Z,82.47
2023-01-10T01:42:44.396Z,82.82
2023-01-10T01:48:10.993Z,82.66
2023-01-10T01:53:25.116Z,82.79
2023-01-10T01:58:33.546Z,82.82
2023-01-10T02:03:40.224Z,82.88
2023-01-10T02:08:50.392Z,82.96
2023-01-10T02:13:58.159Z,82.82
2023-01-10T02:19:05.459Z,83.05
2023-01-10T02:24:47.503Z,83.15
2023-01-10T02:30:28.991Z,83.32
2023-01-10T02:35:43.497Z,83.41
2023-01-10T02:40:54.758Z,83.38
2023-01-10T02:46:06.263Z,83.52
2023-01-10T02:51:17.599Z,83.50
2023-01-10T02:56:41.405Z,83.72
2023-01-10T03:01:52.940Z,83.61
2023-01-10T03:07:18.534Z,83.70
2023-01-10T03:12:38.728Z,83.97
2023-01-10T03:17:47.318Z,84.12
2023-01-10T03:22:56.081Z,83.94
2023-01-10T03:28:10.337Z,84.25
2023-01-10T03:33:18.607Z,84.38
2023-01-10T03:38:32.837Z,84.53
2023-01-10T03:44:05.031Z,84.49
2023-01-10T03:49:12.619Z,84.29
2023-01-10T03:54:19.120Z,84.67
2023-01-10T03:59:27.793Z,84.74
2023-01-10T04:04:33.190Z,84.77
2023-01-10T04:09:38.851Z,84.87
2023-01-10T04:14:46.019Z,85.20
2023-01-10T04:19:51.548Z,85.36
2023-01-10T04:24:56.982Z,85.50
2023-01-10T04:30:02.458Z,85.73
2023-01-10T04:35:09.138Z,86.00
2023-01-10T04:40:16.607Z,86.04
2023-01-10T04:45:22.195Z,86.09
2023-01-10T04:50:28.586Z,86.25
2023-01-10T04:55:35.278Z,86.41
2023-01-10T05:00:41.271Z,86.75
2023-01-10T05:05:47.046Z,86.92
2023-01-10T05:10:52.442Z,87.15
2023-01-10T05:15:58.642Z,87.06
2023-01-10T05:21:07.340Z,87.10
2023-01-10T05:26:18.718Z,87.19
2023-01-10T05:31:24.290Z,87.11
2023-01-10T05:36:29.835Z,87.41
2023-01-10T05:41:35.364Z,87.59
2023-01-10T05:46:40.748Z,87.75
2023-01-10T05:51:46.140Z,87.70
2023-01-10T05:56:51.529Z,87.70
2023-01-10T06:01:57.314Z,87.69
2023-01-10T06:07:02.793Z,87.98
2023-01-10T06:12:08.351Z,87.92
2023-01-10T06:17:14.137Z,87.91
2023-01-10T06:22:19.972Z,87.82
2023-01-10T06:27:25.527Z,87.81
2023-01-10T06:32:30.986Z,87.65
2023-01-10T06:37:36.542Z,87.68
2023-01-10T06:42:42.380Z,87.55
2023-01-10T06:47:47.936Z,87.54
2023-01-10T06:52:58.819Z,87.67
2023-01-10T06:58:05.256Z,87.52
2023-01-10T07:03:11.291Z,87.34
2023-01-10T07:08:16.928Z,87.30
2023-01-10T07:13:22.387Z,87.20
2023-01-10T07:18:27.874Z,87.03
2023-01-10T07:23:33.977Z,86.92
2023-01-10T07:28:40.031Z,86.81
2023-01-10T07:33:45.889Z,86.50
2023-01-10T07:38:51.342Z,86.49
2023-01-10T07:43:56.793Z,86.44
2023-01-10T07:49:02.290Z,86.45
2023-01-10T07:54:07.864Z,86.70
2023-01-10T07:59:13.315Z,86.42
2023-01-10T08:04:18.783Z,86.41
2023-01-10T08:09:24.245Z,86.96
2023-01-10T08:14:29.763Z,86.39
2023-01-10T08:19:35.349Z,86.45
2023-01-10T08:24:40.739Z,86.38
2023-01-10T08:29:46.433Z,86.47
2023-01-10T08:34:51.842Z,86.30
2023-01-10T08:39:57.223Z,86.33
2023-01-10T08:45:02.757Z,86.27
2023-01-10T08:50:09.155Z,86.18
2023-01-10T08:55:14.682Z,86.03
2023-01-10T09:00:20.967Z,86.51
2023-01-10T09:05:28.140Z,86.31
2023-01-10T09:10:34.246Z,86.36
2023-01-10T09:15:39.981Z,86.26
2023-01-10T09:20:46.847Z,86.46
2023-01-10T09:25:55.860Z,86.21
2023-01-10T09:31:03.320Z,85.78
2023-01-10T09:36:10.383Z,85.81
2023-01-10T09:41:19.108Z,85.68
2023-01-10T09:46:53.210Z,85.90
2023-01-10T09:51:59.915Z,85.63
2023-01-10T09:57:05.958Z,85.82
2023-01-10T10:02:26.042Z,85.96
2023-01-10T10:07:31.481Z,86.14
2023-01-10T10:12:58.247Z,86.21
2023-01-10T10:18:21.737Z,85.93
2023-01-10T10:23:38.984Z,85.99
2023-01-10T10:29:06.514Z,85.98
2023-01-10T10:34:34.834Z,85.85
2023-01-10T10:39:43.266Z,86.00
2023-01-10T10:44:57.942Z,85.59
2023-01-10T10:50:18.368Z,85.53
2023-01-10T10:55:26.870Z,85.31
2023-01-10T11:00:32.763Z,84.53
2023-01-10T11:05:44.469Z,84.39
2023-01-10T11:10:58.702Z,84.21
2023-01-10T11:16:06.783Z,83.61
2023-01-10T11:21:20.365Z,82.89
2023-01-10T11:26:32.975Z,82.33
2023-01-10T11:31:39.485Z,81.94
2023-01-10T11:37:04.823Z,81.87
2023-01-10T11:42:30.024Z,81.99
2023-01-10T11:47:41.685Z,81.10
2023-01-10T11:52:45.950Z,80.54
2023-01-10T11:57:57.268Z,80.57
2023-01-10T12:03:03.286Z,80.19
2023-01-10T12:08:10.771Z,80.09
2023-01-10T12:13:17.984Z,80.32
2023-01-10T12:18:24.637Z,79.41
2023-01-10T12:23:33.209Z,79.47
2023-01-10T12:28:40.213Z,79.11
2023-01-10T12:33:48.513Z,79.25
2023-01-10T12:39:05.972Z,79.98
2023-01-10T12:44:17.483Z,78.67
2023-01-10T12:49:28.768Z,78.92
2023-01-10T12:54:34.684Z,79.10
2023-01-10T12:59:43.189Z,79.56
2023-01-10T13:04:52.086Z,79.24
2023-01-10T13:09:57.924Z,77.91
2023-01-10T13:15:06.348Z,78.31
2023-01-10T13:20:26.883Z,78.22
2023-01-10T13:25:36.066Z,78.37
2023-01-10T13:30:42.206Z,78.29
2023-01-10T13:35:49.263Z,78.42
2023-01-10T13:41:05.981Z,77.97
2023-01-10T13:46:23.649Z,77.72
2023-01-10T13:51:29.935Z,77.68
2023-01-10T13:56:41.254Z,77.63
2023-01-10T14:02:11.338Z,77.69
2023-01-10T14:07:31.994Z,77.67
2023-01-10T14:12:42.986Z,77.58
2023-01-10T14:18:09.155Z,77.72
2023-01-10T14:23:23.731Z,77.57
2023-01-10T14:28:34.986Z,77.69
2023-01-10T14:33:43.960Z,77.47
2023-01-10T14:38:51.657Z,77.61
2023-01-10T14:44:13.870Z,77.79
2023-01-10T14:49:22.369Z,77.59
2023-01-10T14:54:29.463Z,77.52
2023-01-10T14:59:37.002Z,77.59
2023-01-10T15:04:45.465Z,77.25
2023-01-10T15:09:57.423Z,77.43
2023-01-10T15:15:14.978Z,77.20
2023-01-10T15:20:22.672Z,76.90
2023-01-10T15:25:38.831Z,76.47
2023-01-10T15:30:45.108Z,76.63
2023-01-10T15:35:50.656Z,76.71
2023-01-10T15:41:02.765Z,76.72
2023-01-10T15:46:12.961Z,76.71
2023-01-10T15:51:33.203Z,76.81
2023-01-10T15:56:53.255Z,76.96
2023-01-10T16:02:21.348Z,77.00
2023-01-10T16:07:33.211Z,77.00
2023-01-10T16:12:59.135Z,77.10
2023-01-10T16:18:04.943Z,77.11
2023-01-10T16:23:17.497Z,77.75
2023-01-10T16:28:26.712Z,77.75
2023-01-10T16:33:32.237Z,78.05
2023-01-10T16:38:37.719Z,78.22
2023-01-10T16:43:43.274Z,78.61
2023-01-10T16:48:50.186Z,78.92
2023-01-10T16:53:58.741Z,79.34
2023-01-10T16:59:07.153Z,78.83
2023-01-10T17:04:16.971Z,78.85
2023-01-10T17:09:28.670Z,78.97
2023-01-10T17:14:36.676Z,78.62
2023-01-10T17:19:42.929Z,78.47
2023-01-10T17:24:49.416Z,78.66
2023-01-10T17:29:57.336Z,78.41
2023-01-10T17:35:15.669Z,78.57
2023-01-10T17:40:22.698Z,78.44
2023-01-10T17:45:28.947Z,78.43
2023-01-10T17:51:02.430Z,78.61
2023-01-10T17:56:11.889Z,78.36
2023-01-10T18:01:25.407Z,78.53
2023-01-10T18:06:31.371Z,78.47
2023-01-10T18:11:39.081Z,78.62
2023-01-10T18:16:47.659Z,78.93
2023-01-10T18:21:53.201Z,78.83
2023-01-10T18:26:58.610Z,79.58
2023-01-10T18:32:04.163Z,78.92
2023-01-10T18:37:11.373Z,78.55
2023-01-10T18:42:17.501Z,78.43
2023-01-10T18:47:24.505Z,78.71
2023-01-10T18:52:30.232Z,78.45
2023-01-10T18:57:35.698Z,80.25
2023-01-10T19:02:41.284Z,78.89
2023-01-10T19:07:47.289Z,78.58
2023-01-10T19:12:52.821Z,78.96
2023-01-10T19:17:58.279Z,78.58
2023-01-10T19:23:03.732Z,78.46
2023-01-10T19:28:09.198Z,78.44
2023-01-10T19:33:14.712Z,78.59
2023-01-10T19:38:20.249Z,78.41
2023-01-10T19:43:26.141Z,77.94
2023-01-10T19:48:31.678Z,77.74
2023-01-10T19:53:44.496Z,77.18
2023-01-10T19:58:51.674Z,77.23
2023-01-10T20:04:02.704Z,76.79
2023-01-10T20:09:10.383Z,77.01
2023-01-10T20:14:18.958Z,77.63
2023-01-10T20:19:24.632Z,77.59
2023-01-10T20:24:30.171Z,77.58
2023-01-10T20:29:36.164Z,77.45
2023-01-10T20:34:43.775Z,76.88
2023-01-10T20:39:49.245Z,76.90
2023-01-10T20:44:54.834Z,76.73
2023-01-10T20:50:00.471Z,76.78
2023-01-10T20:55:06.694Z,77.08
2023-01-10T21:00:13.373Z,77.00
2023-01-10T21:05:18.820Z,77.17
2023-01-10T21:10:24.453Z,77.38
2023-01-10T21:15:30.139Z,77.18
2023-01-10T21:20:35.940Z,77.26
2023-01-10T21:25:41.854Z,77.62
2023-01-10T21:30:47.960Z,77.81
2023-01-10T21:36:00.590Z,77.87
2023-01-10T21:41:09.536Z,77.93
2023-01-10T21:46:15.004Z,77.90
2023-01-10T21:51:20.548Z,78.15
2023-01-10T21:56:26.190Z,78.00
2023-01-10T22:01:31.770Z,78.14
2023-01-10T22:06:37.265Z,77.94
2023-01-10T22:11:42.721Z,78.11
2023-01-10T22:16:48.173Z,78.38
2023-01-10T22:21:53.631Z,78.27
2023-01-10T22:27:00.210Z,78.24
2023-01-10T22:32:05.992Z,78.42
2023-01-10T22:37:11.444Z,78.32
2023-01-10T22:42:16.883Z,78.92
2023-01-10T22:47:22.354Z,78.19
2023-01-10T22:52:27.813Z,78.68
2023-01-10T22:57:33.369Z,78.62
2023-01-10T23:02:38.988Z,78.34
2023-01-10T23:07:44.461Z,78.35
2023-01-10T23:12:50.611Z,78.06
2023-01-10T23:17:56.281Z,78.34
2023-01-10T23:23:01.813Z,78.37
2023-01-10T23:28:07.355Z,78.20
2023-01-10T23:33:12.796Z,77.89
2023-01-10T23:38:20.322Z,78.07
2023-01-10T23:43:26.182Z,77.83
2023-01-10T23:48:31.741Z,78.20
2023-01-10T23:53:37.259Z,78.01
2023-01-10T23:58:42.830Z,78.19
